createdAt,value
2023-10-18T00:01:43.260Z,6.26
2023-10-18T00:04:13.004Z,6.22
2023-10-18T00:06:42.427Z,6.22
2023-10-18T00:09:29.915Z,6.18
2023-10-18T00:12:00.912Z,6.18
2023-10-18T00:14:30.248Z,6.15
2023-10-18T00:17:00.623Z,6.15
2023-10-18T00:19:30.358Z,6.11
2023-10-18T00:22:00.025Z,6.12
2023-10-18T00:24:30.425Z,6.14
2023-10-18T00:27:00.104Z,6.10
2023-10-18T00:29:29.574Z,6.07
2023-10-18T00:32:00.435Z,6.07
2023-10-18T00:34:30.155Z,6.11
2023-10-18T00:37:01.500Z,6.06
2023-10-18T00:39:32.494Z,6.10
2023-10-18T00:42:19.785Z,6.09
2023-10-18T00:44:51.440Z,6.12
2023-10-18T00:47:21.277Z,6.11
2023-10-18T00:49:54.080Z,6.10
2023-10-18T00:52:25.332Z,6.07
2023-10-18T00:54:55.502Z,6.06
2023-10-18T00:57:43.030Z,6.02
2023-10-18T01:00:03.536Z,6.03
2023-10-18T01:02:34.506Z,6.02
2023-10-18T01:05:07.519Z,5.98
2023-10-18T01:07:36.911Z,5.99
2023-10-18T01:10:08.802Z,6.01
2023-10-18T01:12:41.248Z,6.02
2023-10-18T01:15:12.944Z,6.02
2023-10-18T01:17:46.044Z,6.04
2023-10-18T01:20:32.731Z,5.95
2023-10-18T01:23:02.850Z,6.00
2023-10-18T01:25:32.511Z,5.99
2023-10-18T01:28:02.098Z,6.00
2023-10-18T01:30:31.522Z,6.00
2023-10-18T01:33:06.545Z,6.02
2023-10-18T01:35:36.880Z,6.01
2023-10-18T01:38:07.851Z,6.02
2023-10-18T01:40:46.024Z,6.02
2023-10-18T01:43:16.999Z,5.97
2023-10-18T01:45:48.055Z,5.97
2023-10-18T01:48:21.150Z,5.98
2023-10-18T01:50:52.052Z,5.95
2023-10-18T01:53:21.391Z,5.91
2023-10-18T01:55:54.657Z,5.96
2023-10-18T01:58:25.886Z,5.93
2023-10-18T02:00:58.308Z,5.94
2023-10-18T02:03:30.060Z,5.92
2023-10-18T02:05:59.582Z,5.92
2023-10-18T02:08:28.992Z,5.95
2023-10-18T02:10:58.263Z,5.97
2023-10-18T02:13:27.554Z,5.93
2023-10-18T02:15:58.779Z,5.98
2023-10-18T02:18:28.751Z,5.98
2023-10-18T02:20:58.186Z,5.98
2023-10-18T02:23:29.134Z,5.94
2023-10-18T02:25:58.468Z,5.94
2023-10-18T02:28:28.855Z,5.92
2023-10-18T02:31:01.302Z,5.92
2023-10-18T02:33:47.128Z,5.90
2023-10-18T02:36:22.627Z,5.85
2023-10-18T02:38:51.979Z,5.88
2023-10-18T02:41:23.127Z,5.84
2023-10-18T02:43:56.030Z,5.80
2023-10-18T02:46:26.187Z,5.74
2023-10-18T02:48:57.296Z,5.81
2023-10-18T02:51:28.070Z,5.79
2023-10-18T02:54:18.000Z,5.72
2023-10-18T02:56:49.974Z,5.69
2023-10-18T02:59:26.908Z,5.72
2023-10-18T03:01:57.998Z,5.70
2023-10-18T03:04:29.166Z,5.68
2023-10-18T03:07:00.051Z,5.72
2023-10-18T03:09:31.159Z,5.73
2023-10-18T03:12:00.654Z,5.72
2023-10-18T03:14:42.792Z,5.72
2023-10-18T03:17:17.488Z,5.71
2023-10-18T03:19:48.724Z,5.73
2023-10-18T03:22:20.982Z,5.74
2023-10-18T03:24:53.044Z,5.77
2023-10-18T03:27:23.444Z,5.79
2023-10-18T03:30:00.048Z,5.79
2023-10-18T03:32:29.680Z,5.83
2023-10-18T03:35:00.433Z,5.85
2023-10-18T03:37:31.652Z,5.86
2023-10-18T03:40:02.628Z,5.81
2023-10-18T03:42:34.800Z,5.86
2023-10-18T03:45:14.903Z,5.89
2023-10-18T03:47:44.265Z,5.89
2023-10-18T03:50:16.782Z,5.88
2023-10-18T03:52:47.071Z,5.90
2023-10-18T03:55:21.070Z,5.96
2023-10-18T03:57:52.259Z,5.95
2023-10-18T04:00:26.476Z,5.91
2023-10-18T04:02:58.009Z,5.99
2023-10-18T04:05:33.575Z,6.01
2023-10-18T04:08:04.573Z,5.98
2023-10-18T04:10:35.549Z,5.98
2023-10-18T04:13:07.245Z,6.00
2023-10-18T04:15:38.330Z,5.96
2023-10-18T04:18:12.398Z,5.99
2023-10-18T04:20:47.907Z,5.95
2023-10-18T04:23:19.066Z,5.97
2023-10-18T04:26:05.957Z,5.98
2023-10-18T04:28:36.980Z,5.94
2023-10-18T04:31:08.413Z,5.91
2023-10-18T04:33:39.653Z,5.97
2023-10-18T04:36:13.673Z,5.97
2023-10-18T04:38:47.063Z,5.95
2023-10-18T04:41:32.833Z,5.99
2023-10-18T04:44:09.475Z,5.93
2023-10-18T04:46:39.239Z,5.98
2023-10-18T04:49:13.240Z,5.98
2023-10-18T04:51:44.219Z,5.99
2023-10-18T04:54:17.981Z,5.99
2023-10-18T04:56:50.300Z,5.99
2023-10-18T04:59:21.345Z,5.99
2023-10-18T05:01:53.132Z,5.98
2023-10-18T05:04:25.299Z,5.95
2023-10-18T05:06:57.895Z,5.97
2023-10-18T05:09:32.335Z,6.00
2023-10-18T05:12:10.060Z,6.02
2023-10-18T05:14:52.588Z,6.02
2023-10-18T05:17:33.188Z,5.98
2023-10-18T05:20:12.917Z,6.02
2023-10-18T05:22:43.014Z,6.02
2023-10-18T05:25:17.332Z,6.00
2023-10-18T05:28:04.752Z,6.01
2023-10-18T05:30:37.401Z,5.98
2023-10-18T05:33:08.367Z,5.98
2023-10-18T05:35:37.758Z,5.98
2023-10-18T05:38:14.614Z,5.95
2023-10-18T05:40:47.613Z,5.94
2023-10-18T05:43:27.336Z,5.94
2023-10-18T05:46:01.365Z,5.89
2023-10-18T05:48:32.512Z,5.88
2023-10-18T05:51:06.212Z,5.87
2023-10-18T05:53:35.814Z,5.89
2023-10-18T05:56:06.942Z,5.89
2023-10-18T05:58:36.339Z,5.90
2023-10-18T06:01:05.814Z,5.90
2023-10-18T06:03:41.084Z,5.90
2023-10-18T06:06:10.828Z,5.88
2023-10-18T06:08:40.115Z,5.89
2023-10-18T06:11:11.059Z,5.85
2023-10-18T06:13:41.942Z,5.83
2023-10-18T06:16:21.034Z,5.84
2023-10-18T06:18:51.294Z,5.83
2023-10-18T06:21:21.160Z,5.85
2023-10-18T06:23:56.887Z,5.83
2023-10-18T06:26:29.774Z,5.87
2023-10-18T06:29:03.760Z,5.87
2023-10-18T06:31:35.032Z,5.89
2023-10-18T06:34:06.027Z,5.89
2023-10-18T06:36:35.452Z,5.88
2023-10-18T06:39:06.232Z,5.88
2023-10-18T06:41:37.136Z,5.84
2023-10-18T06:44:08.280Z,5.88
2023-10-18T06:49:12.088Z,5.92
2023-10-18T06:51:44.858Z,5.94
2023-10-18T06:54:19.374Z,5.96
2023-10-18T06:56:49.187Z,5.99
2023-10-18T06:59:20.234Z,6.06
2023-10-18T07:01:56.990Z,6.04
2023-10-18T07:04:29.902Z,6.11
2023-10-18T07:06:59.246Z,6.18
2023-10-18T07:09:30.583Z,6.21
2023-10-18T07:12:01.786Z,6.22
2023-10-18T07:14:32.670Z,6.25
2023-10-18T07:17:05.861Z,6.33
2023-10-18T07:19:36.901Z,6.33
2023-10-18T07:22:10.961Z,6.41
2023-10-18T07:24:41.068Z,6.46
2023-10-18T07:27:10.807Z,6.49
2023-10-18T07:29:41.775Z,6.55
2023-10-18T07:32:12.801Z,6.70
2023-10-18T07:34:44.053Z,6.67
2023-10-18T07:37:26.673Z,6.68
2023-10-18T07:40:01.484Z,6.74
2023-10-18T07:42:32.668Z,6.74
2023-10-18T07:45:04.039Z,6.87
2023-10-18T07:47:35.691Z,6.89
2023-10-18T07:50:08.345Z,6.97
2023-10-18T07:52:37.668Z,6.93
2023-10-18T07:55:07.510Z,6.99
2023-10-18T07:57:38.450Z,7.01
2023-10-18T08:00:13.436Z,7.05
2023-10-18T08:02:44.517Z,7.09
2023-10-18T08:05:16.034Z,7.21
2023-10-18T08:07:47.436Z,7.28
2023-10-18T08:10:22.028Z,7.22
2023-10-18T08:13:11.842Z,7.38
2023-10-18T08:15:44.370Z,7.38
2023-10-18T08:18:19.235Z,7.45
2023-10-18T08:20:52.778Z,7.61
2023-10-18T08:23:29.456Z,7.57
2023-10-18T08:26:07.570Z,7.61
2023-10-18T08:28:43.429Z,7.90
2023-10-18T08:31:36.430Z,7.96
2023-10-18T08:34:09.859Z,8.23
2023-10-18T08:36:39.714Z,8.40
2023-10-18T08:39:10.362Z,8.28
2023-10-18T08:41:44.656Z,8.32
2023-10-18T08:44:20.368Z,8.30
2023-10-18T08:46:55.195Z,8.39
2023-10-18T08:49:25.710Z,8.22
2023-10-18T08:51:59.902Z,8.21
2023-10-18T08:57:02.768Z,8.73
2023-10-18T08:59:32.073Z,8.66
2023-10-18T09:02:14.014Z,8.63
2023-10-18T09:04:45.650Z,9.00
2023-10-18T09:07:24.511Z,9.04
2023-10-18T09:09:59.063Z,9.20
2023-10-18T09:12:47.039Z,9.22
2023-10-18T09:15:29.040Z,9.71
2023-10-18T09:18:01.196Z,10.01
2023-10-18T09:20:30.940Z,10.25
2023-10-18T09:23:04.743Z,10.23
2023-10-18T09:25:50.107Z,10.16
2023-10-18T09:28:27.267Z,10.30
2023-10-18T09:30:58.936Z,10.86
2023-10-18T09:33:33.302Z,10.63
2023-10-18T09:36:03.412Z,11.09
2023-10-18T09:38:41.384Z,11.04
2023-10-18T09:41:10.804Z,10.94
2023-10-18T09:43:40.121Z,11.19
2023-10-18T09:46:11.440Z,10.95
2023-10-18T09:48:43.424Z,11.26
2023-10-18T09:51:18.622Z,11.78
2023-10-18T09:53:52.555Z,11.97
2023-10-18T09:56:28.862Z,12.14
2023-10-18T09:59:08.718Z,12.86
2023-10-18T10:01:48.822Z,11.92
2023-10-18T10:04:23.323Z,11.66
2023-10-18T10:06:56.744Z,11.51
2023-10-18T10:09:33.781Z,11.68
2023-10-18T10:12:04.499Z,11.97
2023-10-18T10:14:35.381Z,11.74
2023-10-18T10:17:13.831Z,10.98
2023-10-18T10:19:49.136Z,10.95
2023-10-18T10:22:22.208Z,11.32
2023-10-18T10:25:04.924Z,11.07
2023-10-18T10:27:29.218Z,11.29
2023-10-18T10:30:19.006Z,11.51
2023-10-18T10:32:49.796Z,11.63
2023-10-18T10:35:22.717Z,12.05
2023-10-18T10:37:53.279Z,12.11
2023-10-18T10:40:32.344Z,12.24
2023-10-18T10:43:08.004Z,12.36
2023-10-18T10:45:49.118Z,12.53
2023-10-18T10:48:24.867Z,12.58
2023-10-18T10:51:17.151Z,12.67
2023-10-18T10:53:52.665Z,12.94
2023-10-18T10:56:36.972Z,13.34
2023-10-18T10:59:12.242Z,13.72
2023-10-18T11:01:58.765Z,13.16
2023-10-18T11:04:33.168Z,13.26
2023-10-18T11:07:04.849Z,12.82
2023-10-18T11:09:35.288Z,12.71
2023-10-18T11:12:07.935Z,13.27
2023-10-18T11:14:39.383Z,13.23
2023-10-18T11:17:17.238Z,13.70
2023-10-18T11:19:58.451Z,13.72
2023-10-18T11:22:35.238Z,14.13
2023-10-18T11:25:06.706Z,14.39
2023-10-18T11:27:37.829Z,13.97
2023-10-18T11:30:21.136Z,13.75
2023-10-18T11:32:57.273Z,13.93
2023-10-18T11:35:44.113Z,14.07
2023-10-18T11:38:15.459Z,13.66
2023-10-18T11:40:49.600Z,13.36
2023-10-18T11:43:27.010Z,13.45
2023-10-18T11:46:14.406Z,13.33
2023-10-18T11:48:44.453Z,13.16
2023-10-18T11:51:14.925Z,13.40
2023-10-18T11:53:45.354Z,13.48
2023-10-18T11:56:14.864Z,14.15
2023-10-18T11:58:47.957Z,14.44
2023-10-18T12:01:22.821Z,14.64
2023-10-18T12:03:53.000Z,15.09
2023-10-18T12:06:24.271Z,15.04
2023-10-18T12:09:11.678Z,15.00
2023-10-18T12:11:41.008Z,14.58
2023-10-18T12:14:10.417Z,14.32
2023-10-18T12:16:41.600Z,14.03
2023-10-18T12:19:12.428Z,14.08
2023-10-18T12:21:43.345Z,13.99
2023-10-18T12:24:13.925Z,13.94
2023-10-18T12:26:45.045Z,13.88
2023-10-18T12:29:16.145Z,13.84
2023-10-18T12:31:50.282Z,14.06
2023-10-18T12:34:21.306Z,14.18
2023-10-18T12:36:50.792Z,14.40
2023-10-18T12:39:22.820Z,14.77
2023-10-18T12:41:56.511Z,14.96
2023-10-18T12:44:30.375Z,14.69
2023-10-18T12:47:00.070Z,14.94
2023-10-18T12:49:31.164Z,15.12
2023-10-18T12:52:04.730Z,14.86
2023-10-18T12:54:37.928Z,14.84
2023-10-18T12:57:11.908Z,14.42
2023-10-18T13:00:01.216Z,14.16
2023-10-18T13:02:51.302Z,13.88
2023-10-18T13:05:20.969Z,13.67
2023-10-18T13:07:56.715Z,13.41
2023-10-18T13:10:33.862Z,13.45
2023-10-18T13:13:10.572Z,13.31
2023-10-18T13:15:41.849Z,13.42
2023-10-18T13:18:12.932Z,13.44
2023-10-18T13:20:45.715Z,13.51
2023-10-18T13:23:16.764Z,13.52
2023-10-18T13:25:55.699Z,13.61
2023-10-18T13:28:29.787Z,13.47
2023-10-18T13:30:59.074Z,13.59
2023-10-18T13:33:30.107Z,13.56
2023-10-18T13:35:59.367Z,13.54
2023-10-18T13:38:29.783Z,13.59
2023-10-18T13:41:03.588Z,13.57
2023-10-18T13:43:37.093Z,13.52
2023-10-18T13:46:08.187Z,13.63
2023-10-18T13:48:39.169Z,13.68
2023-10-18T13:51:11.418Z,13.59
2023-10-18T13:53:43.073Z,13.56
2023-10-18T13:56:14.177Z,13.53
2023-10-18T13:58:44.329Z,13.42
2023-10-18T14:01:21.405Z,13.44
2023-10-18T14:03:52.625Z,13.30
2023-10-18T14:06:36.837Z,13.18
2023-10-18T14:08:56.231Z,13.12
2023-10-18T14:11:44.689Z,13.08
2023-10-18T14:14:16.156Z,13.10
2023-10-18T14:16:50.431Z,13.02
2023-10-18T14:19:24.270Z,13.01
2023-10-18T14:21:53.644Z,12.97
2023-10-18T14:24:24.829Z,13.02
2023-10-18T14:26:55.229Z,13.08
2023-10-18T14:29:24.676Z,13.08
2023-10-18T14:31:54.191Z,13.01
2023-10-18T14:34:24.003Z,13.08
2023-10-18T14:36:53.640Z,13.04
2023-10-18T14:41:54.320Z,13.13
2023-10-18T14:44:23.686Z,13.01
2023-10-18T14:46:54.280Z,13.05
2023-10-18T14:49:23.673Z,13.01
2023-10-18T14:51:52.970Z,12.97
2023-10-18T14:54:22.430Z,12.96
2023-10-18T14:56:52.048Z,12.97
2023-10-18T14:59:21.593Z,12.93
2023-10-18T15:01:50.877Z,12.88
2023-10-18T15:04:20.274Z,12.91
2023-10-18T15:06:49.601Z,12.85
2023-10-18T15:09:19.287Z,12.83
2023-10-18T15:11:52.802Z,12.84
2023-10-18T15:14:23.156Z,12.78
2023-10-18T15:16:54.205Z,12.80
2023-10-18T15:19:23.629Z,12.75
2023-10-18T15:21:52.875Z,12.75
2023-10-18T15:24:23.765Z,12.72
2023-10-18T15:26:53.062Z,12.70
2023-10-18T15:29:22.417Z,12.67
2023-10-18T15:31:51.743Z,12.63
2023-10-18T15:34:21.264Z,12.60
2023-10-18T15:36:50.613Z,12.55
2023-10-18T15:39:19.972Z,12.55
2023-10-18T15:41:50.858Z,12.49
2023-10-18T15:44:20.233Z,12.46
2023-10-18T15:46:49.830Z,12.43
2023-10-18T15:49:19.162Z,12.38
2023-10-18T15:51:50.121Z,12.41
2023-10-18T15:54:20.338Z,12.35
2023-10-18T15:56:49.628Z,12.33
2023-10-18T15:59:19.047Z,12.32
2023-10-18T16:01:58.929Z,12.31
2023-10-18T16:04:20.613Z,12.27
2023-10-18T16:06:51.936Z,12.18
2023-10-18T16:09:23.227Z,12.12
2023-10-18T16:11:55.644Z,12.05
2023-10-18T16:14:26.665Z,12.06
2023-10-18T16:16:59.195Z,12.08
2023-10-18T16:19:31.542Z,12.04
2023-10-18T16:22:00.906Z,12.00
2023-10-18T16:24:33.494Z,11.95
2023-10-18T16:27:04.389Z,11.94
2023-10-18T16:29:34.616Z,11.93
2023-10-18T16:32:03.990Z,11.91
2023-10-18T16:34:33.307Z,11.87
2023-10-18T16:37:03.586Z,11.86
2023-10-18T16:39:32.950Z,11.85
2023-10-18T16:42:03.848Z,11.81
2023-10-18T16:44:33.820Z,11.79
2023-10-18T16:47:03.297Z,11.76
2023-10-18T16:49:32.880Z,11.78
2023-10-18T16:52:02.227Z,11.74
2023-10-18T16:54:32.907Z,11.77
2023-10-18T16:57:02.654Z,11.75
2023-10-18T16:59:32.344Z,11.80
2023-10-18T17:02:01.851Z,11.74
2023-10-18T17:04:33.515Z,11.77
2023-10-18T17:07:03.464Z,11.76
2023-10-18T17:09:34.737Z,11.84
2023-10-18T17:12:04.204Z,11.82
2023-10-18T17:14:33.751Z,11.78
2023-10-18T17:17:04.652Z,11.78
2023-10-18T17:19:35.638Z,11.79
2023-10-18T17:22:05.119Z,11.83
2023-10-18T17:24:34.867Z,11.75
2023-10-18T17:27:04.903Z,11.76
2023-10-18T17:29:34.380Z,11.77
2023-10-18T17:32:07.972Z,11.78
2023-10-18T17:34:40.036Z,11.77
2023-10-18T17:37:09.375Z,11.74
2023-10-18T17:39:38.964Z,11.74
2023-10-18T17:42:08.939Z,11.75
2023-10-18T17:44:41.408Z,11.73
2023-10-18T17:47:10.727Z,11.73
2023-10-18T17:49:41.850Z,11.75
2023-10-18T17:52:11.939Z,11.76
2023-10-18T17:54:41.521Z,11.77
2023-10-18T17:57:11.582Z,11.79
2023-10-18T17:59:41.025Z,11.78
2023-10-18T18:02:13.446Z,11.79
2023-10-18T18:04:43.469Z,11.75
2023-10-18T18:07:14.669Z,11.77
2023-10-18T18:09:44.956Z,11.76
2023-10-18T18:12:14.465Z,11.70
2023-10-18T18:14:43.856Z,11.68
2023-10-18T18:17:14.718Z,11.66
2023-10-18T18:19:44.446Z,11.67
2023-10-18T18:22:14.008Z,11.70
2023-10-18T18:24:43.458Z,11.66
2023-10-18T18:27:12.871Z,11.61
2023-10-18T18:29:42.237Z,11.60
2023-10-18T18:32:11.945Z,11.59
2023-10-18T18:34:42.981Z,11.49
2023-10-18T18:37:12.438Z,11.43
2023-10-18T18:39:41.879Z,11.33
2023-10-18T18:42:11.280Z,11.23
2023-10-18T18:44:40.691Z,11.15
2023-10-18T18:47:10.542Z,11.05
2023-10-18T18:49:41.385Z,11.01
2023-10-18T18:52:10.857Z,10.88
2023-10-18T18:54:40.350Z,10.83
2023-10-18T18:57:11.796Z,10.79
2023-10-18T18:59:42.736Z,10.71
2023-10-18T19:02:12.768Z,10.64
2023-10-18T19:04:42.235Z,10.52
2023-10-18T19:07:12.762Z,10.39
2023-10-18T19:09:42.123Z,10.29
2023-10-18T19:12:11.504Z,10.23
2023-10-18T19:14:40.962Z,10.13
2023-10-18T19:17:11.910Z,10.09
2023-10-18T19:19:41.587Z,10.07
2023-10-18T19:22:11.286Z,10.02
2023-10-18T19:24:43.752Z,9.94
2023-10-18T19:27:12.579Z,9.90
2023-10-18T19:29:41.827Z,9.85
2023-10-18T19:32:11.327Z,9.82
2023-10-18T19:34:41.188Z,9.77
2023-10-18T19:37:10.541Z,9.76
2023-10-18T19:39:41.593Z,9.74
2023-10-18T19:42:11.861Z,9.76
2023-10-18T19:44:42.830Z,9.77
2023-10-18T19:47:12.316Z,9.77
2023-10-18T19:49:41.792Z,9.77
2023-10-18T19:52:11.228Z,9.73
2023-10-18T19:54:40.677Z,9.77
2023-10-18T19:57:10.095Z,9.76
2023-10-18T19:59:39.489Z,9.73
2023-10-18T20:02:09.135Z,9.72
2023-10-18T20:04:38.712Z,9.72
2023-10-18T20:07:09.696Z,9.65
2023-10-18T20:09:39.909Z,9.59
2023-10-18T20:12:09.217Z,9.58
2023-10-18T20:14:38.629Z,9.53
2023-10-18T20:17:09.663Z,9.48
2023-10-18T20:19:39.719Z,9.46
2023-10-18T20:22:09.059Z,9.47
2023-10-18T20:24:40.895Z,9.45
2023-10-18T20:27:10.749Z,9.44
2023-10-18T20:29:42.367Z,9.44
2023-10-18T20:32:11.953Z,9.41
2023-10-18T20:34:41.750Z,9.37
2023-10-18T20:37:11.411Z,9.35
2023-10-18T20:39:51.663Z,9.36
2023-10-18T20:42:11.665Z,9.37
2023-10-18T20:44:42.163Z,9.39
2023-10-18T20:47:13.442Z,9.39
2023-10-18T20:49:44.386Z,9.38
2023-10-18T20:52:15.320Z,9.39
2023-10-18T20:54:46.370Z,9.37
2023-10-18T20:57:17.311Z,9.38
2023-10-18T20:59:46.599Z,9.39
2023-10-18T21:02:20.513Z,9.46
2023-10-18T21:04:50.190Z,9.41
2023-10-18T21:07:26.046Z,9.44
2023-10-18T21:09:55.821Z,9.48
2023-10-18T21:12:26.765Z,9.56
2023-10-18T21:14:56.097Z,9.57
2023-10-18T21:17:25.429Z,9.58
2023-10-18T21:19:54.763Z,9.62
2023-10-18T21:22:24.188Z,9.64
2023-10-18T21:24:53.620Z,9.67
2023-10-18T21:27:22.918Z,9.70
2023-10-18T21:29:52.767Z,9.74
2023-10-18T21:32:22.318Z,9.76
2023-10-18T21:34:54.055Z,9.79
2023-10-18T21:37:24.346Z,9.83
2023-10-18T21:39:53.666Z,9.84
2023-10-18T21:42:23.202Z,9.87
2023-10-18T21:44:52.540Z,9.87
2023-10-18T21:47:21.870Z,9.88
2023-10-18T21:49:51.891Z,9.91
2023-10-18T21:52:21.771Z,9.90
2023-10-18T21:54:51.167Z,9.97
2023-10-18T21:57:48.347Z,9.99
2023-10-18T22:00:19.502Z,10.04
2023-10-18T22:02:49.275Z,10.05
2023-10-18T22:05:19.676Z,10.10
2023-10-18T22:07:49.715Z,10.13
2023-10-18T22:10:20.786Z,10.23
2023-10-18T22:12:53.504Z,10.31
2023-10-18T22:15:24.515Z,10.32
2023-10-18T22:17:54.406Z,10.34
2023-10-18T22:20:26.354Z,10.37
2023-10-18T22:22:57.276Z,10.38
2023-10-18T22:25:28.289Z,10.43
2023-10-18T22:27:57.722Z,10.45
2023-10-18T22:30:31.155Z,10.48
2023-10-18T22:33:00.737Z,10.47
2023-10-18T22:35:31.108Z,10.54
2023-10-18T22:38:02.061Z,10.64
2023-10-18T22:40:33.086Z,10.68
2023-10-18T22:43:08.676Z,10.67
2023-10-18T22:45:39.850Z,10.69
2023-10-18T22:48:25.382Z,10.75
2023-10-18T22:50:56.801Z,10.79
2023-10-18T22:53:31.967Z,10.85
2023-10-18T22:56:01.621Z,10.83
2023-10-18T22:58:31.375Z,10.83
2023-10-18T23:01:02.212Z,10.81
2023-10-18T23:03:33.447Z,10.84
2023-10-18T23:06:04.591Z,10.87
2023-10-18T23:08:38.607Z,10.86
2023-10-18T23:11:26.569Z,10.88
2023-10-18T23:13:56.553Z,10.95
2023-10-18T23:16:33.535Z,10.98
2023-10-18T23:19:13.601Z,10.99
2023-10-18T23:21:42.999Z,11.03
2023-10-18T23:24:14.011Z,11.08
2023-10-18T23:26:50.744Z,11.15
2023-10-18T23:29:20.086Z,11.20
2023-10-18T23:31:57.536Z,11.22
2023-10-18T23:34:28.673Z,11.22
2023-10-18T23:37:13.179Z,11.28
2023-10-18T23:39:44.438Z,11.34
2023-10-18T23:42:16.733Z,11.36
2023-10-18T23:44:58.049Z,11.34
2023-10-18T23:47:42.190Z,11.38
2023-10-18T23:50:21.515Z,11.39
2023-10-18T23:52:55.928Z,11.39
2023-10-18T23:55:37.261Z,11.41
2023-10-18T23:58:12.293Z,11.37
